Sunflower Cobalt — JI3646 — position and weather

sailwx.info

Track history (hours):
 
Tides and Currents Weather Stations Pressure Air Temp Water Temp Dewpoint Dewpoint Depression Visibility Wind Speed Wind Dir Waves Ship Positions

Sunflower Cobalt

Last reported at 2017-Sep-21 11:31 UTC. Time now 2017-Sep-23 03:37 UTC.
Position N 34°35' E 134°52'.

Length 146 m; draft 5.6 m.

Type: Passenger vessel. MMSI: 431300775.

Date/timePositionNaut miles runAvg speedWind from/ knotsBaromVisibWave heightAir tempDewpointWater temp
2017-Sep-21 11:31N 34°35' E 134°52'124.5
2017-Sep-21 11:30N 34°35' E 134°53'1020.7
2017-Sep-21 11:00N 34°36' E 135°05'1020.4
2017-Sep-21 10:31N 34°36' E 135°17'612.8
2017-Sep-21 10:00N 34°38' E 135°25'0 0.0
2017-Sep-21 09:18N 34°38' E 135°25'0 0.0
2017-Sep-21 09:00N 34°38' E 135°25'0 0.1
2017-Sep-21 08:30N 34°38' E 135°25'0 0.0
2017-Sep-21 07:48N 34°38' E 135°25'0 0.0
2017-Sep-21 07:24N 34°38' E 135°25'0 0.0
2017-Sep-21 06:42N 34°38' E 135°25'0 0.0
2017-Sep-21 06:30N 34°38' E 135°25'0 0.1
2017-Sep-21 06:00N 34°38' E 135°25'0 0.1
2017-Sep-21 05:30N 34°38' E 135°25'0 0.1
2017-Sep-21 05:00N 34°38' E 135°25'0 0.0
2017-Sep-21 04:30N 34°38' E 135°25'0 0.0
2017-Sep-21 04:00N 34°38' E 135°25'0 0.1
2017-Sep-21 03:24N 34°38' E 135°25'0 0.0
2017-Sep-21 02:54N 34°38' E 135°25'0 0.1
2017-Sep-21 02:30N 34°38' E 135°25'0 0.1
2017-Sep-21 02:00N 34°38' E 135°25'0 0.0
2017-Sep-21 01:30N 34°38' E 135°25'0 0.0
2017-Sep-21 01:00N 34°38' E 135°25'0 0.0
2017-Sep-21 00:30N 34°38' E 135°25'0 0.0
2017-Sep-20 23:48N 34°38' E 135°25'0 0.0
2017-Sep-20 23:30N 34°38' E 135°25'0 0.0
2017-Sep-20 23:00N 34°38' E 135°25'0 0.1
2017-Sep-20 22:30N 34°38' E 135°25'0 0.1
2017-Sep-20 21:54N 34°38' E 135°25'0 0.0
2017-Sep-20 21:30N 34°38' E 135°25'2 4.2
2017-Sep-20 21:00N 34°37' E 135°22'1019.1
2017-Sep-20 20:30N 34°35' E 135°11'1020.5
2017-Sep-20 20:00N 34°37' E 134°59'12 0.4
2017-Sep-19 11:46N 34°33' E 134°46'722.1
2017-Sep-19 11:28N 34°36' E 134°53'1021.1
2017-Sep-19 11:00N 34°36' E 135°05'1019.8
2017-Sep-19 10:30N 34°36' E 135°17'612.7
2017-Sep-19 10:00N 34°38' E 135°25'0 0.1
2017-Sep-19 09:26N 34°38' E 135°25'0 0.0
2017-Sep-19 08:56N 34°38' E 135°25'0 0.0
2017-Sep-19 08:26N 34°38' E 135°25'0 0.1
2017-Sep-19 07:55N 34°38' E 135°25'0 0.0
2017-Sep-19 07:26N 34°38' E 135°25'0 0.1
2017-Sep-19 06:56N 34°38' E 135°25'0 0.0
2017-Sep-19 06:26N 34°38' E 135°25'0 0.0
2017-Sep-19 05:26N 34°38' E 135°25'0 0.0
2017-Sep-19 04:44N 34°38' E 135°25'0 0.0
2017-Sep-19 04:26N 34°38' E 135°25'0 0.0
2017-Sep-19 03:56N 34°38' E 135°25'0 0.0
2017-Sep-19 03:14N 34°38' E 135°25'0 0.2
2017-Sep-19 02:56N 34°38' E 135°25'0 0.0
2017-Sep-19 02:26N 34°38' E 135°25'0 0.1
2017-Sep-19 01:50N 34°38' E 135°25'0 0.0
2017-Sep-19 01:26N 34°38' E 135°25'0 0.1
2017-Sep-19 00:50N 34°38' E 135°25'0 0.0
2017-Sep-19 00:14N 34°38' E 135°25'0 0.0
2017-Sep-18 23:56N 34°38' E 135°25'0 0.0
2017-Sep-18 23:26N 34°38' E 135°25'0 0.0
2017-Sep-18 22:55N 34°38' E 135°25'0 0.0
2017-Sep-18 22:14N 34°38' E 135°25'0 0.0
2017-Sep-18 21:56N 34°38' E 135°25'0 0.0
2017-Sep-18 21:26N 34°38' E 135°25'3 7.2
2017-Sep-18 21:00N 34°37' E 135°21'1019.6
2017-Sep-18 20:30N 34°34' E 135°10'1118.3
2017-Sep-18 19:54N 34°36' E 134°57'  
2017-Sep-15 12:26N 34°35' E 134°52'818.1
2017-Sep-15 12:00N 34°37' E 135°02'919.0
2017-Sep-15 11:31N 34°36' E 135°13'918.5
2017-Sep-15 11:00N 34°38' E 135°24'1 0.9
2017-Sep-15 10:20N 34°38' E 135°25'0 0.1
2017-Sep-15 09:56N 34°38' E 135°25'0 0.1
2017-Sep-15 09:26N 34°38' E 135°25'0 0.0
2017-Sep-15 08:56N 34°38' E 135°25'0 0.0
2017-Sep-15 08:26N 34°38' E 135°25'0 0.0
2017-Sep-15 07:44N 34°38' E 135°25'0 0.0
2017-Sep-15 07:26N 34°38' E 135°25'0 0.1
2017-Sep-15 06:56N 34°38' E 135°25'0 0.1
2017-Sep-15 06:26N 34°38' E 135°25'0 0.0
2017-Sep-15 05:56N 34°38' E 135°25'0 0.1
2017-Sep-15 05:26N 34°38' E 135°25'0 0.1
2017-Sep-15 04:56N 34°38' E 135°25'0 0.0
2017-Sep-15 04:26N 34°38' E 135°25'0 0.0
2017-Sep-15 03:56N 34°38' E 135°25'0 0.0
2017-Sep-15 03:26N 34°38' E 135°25'0 0.0
2017-Sep-15 02:56N 34°38' E 135°25'0 0.0
2017-Sep-15 02:26N 34°38' E 135°25'0 0.0
2017-Sep-15 01:50N 34°38' E 135°25'0 0.0
2017-Sep-15 01:20N 34°38' E 135°25'0 0.0
2017-Sep-15 00:56N 34°38' E 135°25'0 0.0
2017-Sep-15 00:26N 34°38' E 135°25'0 0.0
2017-Sep-14 23:56N 34°38' E 135°25'0 0.0
2017-Sep-14 23:26N 34°38' E 135°25'0 0.0
2017-Sep-14 22:56N 34°38' E 135°25'0 0.0
2017-Sep-14 22:26N 34°38' E 135°25'0 0.0
2017-Sep-14 21:56N 34°38' E 135°25'0 0.0
2017-Sep-14 21:27N 34°38' E 135°25'4 8.3
2017-Sep-14 21:00N 34°36' E 135°21'1019.5
2017-Sep-14 20:30N 34°35' E 135°09'1019.1
2017-Sep-14 20:00N 34°37' E 134°57'6 0.2
2017-Sep-13 11:41N 34°34' E 134°51'419.5
2017-Sep-13 11:30N 34°36' E 134°55'816.9
2017-Sep-13 11:00N 34°36' E 135°05'1019.8
2017-Sep-13 10:30N 34°37' E 135°17'713.2
2017-Sep-13 10:00N 34°38' E 135°25'0 0.0
2017-Sep-13 09:13N 34°38' E 135°25'0 0.0
2017-Sep-13 08:55N 34°38' E 135°25'0 0.0
2017-Sep-13 08:19N 34°38' E 135°25'0 0.0
2017-Sep-13 07:55N 34°38' E 135°25'0 0.0
2017-Sep-13 07:25N 34°38' E 135°25'0 0.0
2017-Sep-13 06:55N 34°38' E 135°25'0 0.0
2017-Sep-13 06:25N 34°38' E 135°25'0 0.0
2017-Sep-13 05:55N 34°38' E 135°25'0 0.0
2017-Sep-13 05:25N 34°38' E 135°25'0 0.0
2017-Sep-13 04:55N 34°38' E 135°25'0 0.0
2017-Sep-13 04:25N 34°38' E 135°25'0 0.0
2017-Sep-13 03:55N 34°38' E 135°25'0 0.0
2017-Sep-13 03:25N 34°38' E 135°25'0 0.0
2017-Sep-13 02:55N 34°38' E 135°25'0 0.0
2017-Sep-13 02:25N 34°38' E 135°25'0 0.0
2017-Sep-13 01:49N 34°38' E 135°25'0 0.0
2017-Sep-13 01:25N 34°38' E 135°25'0 0.0
2017-Sep-13 00:55N 34°38' E 135°25'0 0.0
2017-Sep-13 00:25N 34°38' E 135°25'0 0.0
2017-Sep-12 23:55N 34°38' E 135°25'0 0.0
2017-Sep-12 23:25N 34°38' E 135°25'0 0.0
2017-Sep-12 22:55N 34°38' E 135°25'0 0.0
2017-Sep-12 22:25N 34°38' E 135°25'0 0.0
2017-Sep-12 21:31N 34°38' E 135°25'0 0.0
2017-Sep-12 21:25N 34°38' E 135°25'3 6.9
2017-Sep-12 21:00N 34°37' E 135°21'917.1
2017-Sep-12 20:30N 34°35' E 135°11'1019.7
2017-Sep-12 20:00N 34°37' E 134°59'  
Track history (hours):
 
Tides and Currents Weather Stations Pressure Air Temp Water Temp Dewpoint Dewpoint Depression Visibility Wind Speed Wind Dir Waves Ship Positions

Sunflower Cobalt

Last reported at 2017-Sep-21 11:31 UTC. Time now 2017-Sep-23 03:37 UTC.
Position N 34°35' E 134°52'.

Length 146 m; draft 5.6 m.

Type: Passenger vessel. MMSI: 431300775.

Date/timePositionNaut miles runAvg speedWind from/ knotsBaromVisibWave heightAir tempDewpointWater temp
2017-Sep-21 11:31N 34°35' E 134°52'124.5
2017-Sep-21 11:30N 34°35' E 134°53'1020.7
2017-Sep-21 11:00N 34°36' E 135°05'1020.4
2017-Sep-21 10:31N 34°36' E 135°17'612.8
2017-Sep-21 10:00N 34°38' E 135°25'0 0.0
2017-Sep-21 09:18N 34°38' E 135°25'0 0.0
2017-Sep-21 09:00N 34°38' E 135°25'0 0.1
2017-Sep-21 08:30N 34°38' E 135°25'0 0.0
2017-Sep-21 07:48N 34°38' E 135°25'0 0.0
2017-Sep-21 07:24N 34°38' E 135°25'0 0.0
2017-Sep-21 06:42N 34°38' E 135°25'0 0.0
2017-Sep-21 06:30N 34°38' E 135°25'0 0.1
2017-Sep-21 06:00N 34°38' E 135°25'0 0.1
2017-Sep-21 05:30N 34°38' E 135°25'0 0.1
2017-Sep-21 05:00N 34°38' E 135°25'0 0.0
2017-Sep-21 04:30N 34°38' E 135°25'0 0.0
2017-Sep-21 04:00N 34°38' E 135°25'0 0.1
2017-Sep-21 03:24N 34°38' E 135°25'0 0.0
2017-Sep-21 02:54N 34°38' E 135°25'0 0.1
2017-Sep-21 02:30N 34°38' E 135°25'0 0.1
2017-Sep-21 02:00N 34°38' E 135°25'0 0.0
2017-Sep-21 01:30N 34°38' E 135°25'0 0.0
2017-Sep-21 01:00N 34°38' E 135°25'0 0.0
2017-Sep-21 00:30N 34°38' E 135°25'0 0.0
2017-Sep-20 23:48N 34°38' E 135°25'0 0.0
2017-Sep-20 23:30N 34°38' E 135°25'0 0.0
2017-Sep-20 23:00N 34°38' E 135°25'0 0.1
2017-Sep-20 22:30N 34°38' E 135°25'0 0.1
2017-Sep-20 21:54N 34°38' E 135°25'0 0.0
2017-Sep-20 21:30N 34°38' E 135°25'2 4.2
2017-Sep-20 21:00N 34°37' E 135°22'1019.1
2017-Sep-20 20:30N 34°35' E 135°11'1020.5
2017-Sep-20 20:00N 34°37' E 134°59'12 0.4
2017-Sep-19 11:46N 34°33' E 134°46'722.1
2017-Sep-19 11:28N 34°36' E 134°53'1021.1
2017-Sep-19 11:00N 34°36' E 135°05'1019.8
2017-Sep-19 10:30N 34°36' E 135°17'612.7
2017-Sep-19 10:00N 34°38' E 135°25'0 0.1
2017-Sep-19 09:26N 34°38' E 135°25'0 0.0
2017-Sep-19 08:56N 34°38' E 135°25'0 0.0
2017-Sep-19 08:26N 34°38' E 135°25'0 0.1
2017-Sep-19 07:55N 34°38' E 135°25'0 0.0
2017-Sep-19 07:26N 34°38' E 135°25'0 0.1
2017-Sep-19 06:56N 34°38' E 135°25'0 0.0
2017-Sep-19 06:26N 34°38' E 135°25'0 0.0
2017-Sep-19 05:26N 34°38' E 135°25'0 0.0
2017-Sep-19 04:44N 34°38' E 135°25'0 0.0
2017-Sep-19 04:26N 34°38' E 135°25'0 0.0
2017-Sep-19 03:56N 34°38' E 135°25'0 0.0
2017-Sep-19 03:14N 34°38' E 135°25'0 0.2
2017-Sep-19 02:56N 34°38' E 135°25'0 0.0
2017-Sep-19 02:26N 34°38' E 135°25'0 0.1
2017-Sep-19 01:50N 34°38' E 135°25'0 0.0
2017-Sep-19 01:26N 34°38' E 135°25'0 0.1
2017-Sep-19 00:50N 34°38' E 135°25'0 0.0
2017-Sep-19 00:14N 34°38' E 135°25'0 0.0
2017-Sep-18 23:56N 34°38' E 135°25'0 0.0
2017-Sep-18 23:26N 34°38' E 135°25'0 0.0
2017-Sep-18 22:55N 34°38' E 135°25'0 0.0
2017-Sep-18 22:14N 34°38' E 135°25'0 0.0
2017-Sep-18 21:56N 34°38' E 135°25'0 0.0
2017-Sep-18 21:26N 34°38' E 135°25'3 7.2
2017-Sep-18 21:00N 34°37' E 135°21'1019.6
2017-Sep-18 20:30N 34°34' E 135°10'1118.3
2017-Sep-18 19:54N 34°36' E 134°57'  
2017-Sep-15 12:26N 34°35' E 134°52'818.1
2017-Sep-15 12:00N 34°37' E 135°02'919.0
2017-Sep-15 11:31N 34°36' E 135°13'918.5
2017-Sep-15 11:00N 34°38' E 135°24'1 0.9
2017-Sep-15 10:20N 34°38' E 135°25'0 0.1
2017-Sep-15 09:56N 34°38' E 135°25'0 0.1
2017-Sep-15 09:26N 34°38' E 135°25'0 0.0
2017-Sep-15 08:56N 34°38' E 135°25'0 0.0
2017-Sep-15 08:26N 34°38' E 135°25'0 0.0
2017-Sep-15 07:44N 34°38' E 135°25'0 0.0
2017-Sep-15 07:26N 34°38' E 135°25'0 0.1
2017-Sep-15 06:56N 34°38' E 135°25'0 0.1
2017-Sep-15 06:26N 34°38' E 135°25'0 0.0
2017-Sep-15 05:56N 34°38' E 135°25'0 0.1
2017-Sep-15 05:26N 34°38' E 135°25'0 0.1
2017-Sep-15 04:56N 34°38' E 135°25'0 0.0
2017-Sep-15 04:26N 34°38' E 135°25'0 0.0
2017-Sep-15 03:56N 34°38' E 135°25'0 0.0
2017-Sep-15 03:26N 34°38' E 135°25'0 0.0
2017-Sep-15 02:56N 34°38' E 135°25'0 0.0
2017-Sep-15 02:26N 34°38' E 135°25'0 0.0
2017-Sep-15 01:50N 34°38' E 135°25'0 0.0
2017-Sep-15 01:20N 34°38' E 135°25'0 0.0
2017-Sep-15 00:56N 34°38' E 135°25'0 0.0
2017-Sep-15 00:26N 34°38' E 135°25'0 0.0
2017-Sep-14 23:56N 34°38' E 135°25'0 0.0
2017-Sep-14 23:26N 34°38' E 135°25'0 0.0
2017-Sep-14 22:56N 34°38' E 135°25'0 0.0
2017-Sep-14 22:26N 34°38' E 135°25'0 0.0
2017-Sep-14 21:56N 34°38' E 135°25'0 0.0
2017-Sep-14 21:27N 34°38' E 135°25'4 8.3
2017-Sep-14 21:00N 34°36' E 135°21'1019.5
2017-Sep-14 20:30N 34°35' E 135°09'1019.1
2017-Sep-14 20:00N 34°37' E 134°57'6 0.2
2017-Sep-13 11:41N 34°34' E 134°51'419.5
2017-Sep-13 11:30N 34°36' E 134°55'816.9
2017-Sep-13 11:00N 34°36' E 135°05'1019.8
2017-Sep-13 10:30N 34°37' E 135°17'713.2
2017-Sep-13 10:00N 34°38' E 135°25'0 0.0
2017-Sep-13 09:13N 34°38' E 135°25'0 0.0
2017-Sep-13 08:55N 34°38' E 135°25'0 0.0
2017-Sep-13 08:19N 34°38' E 135°25'0 0.0
2017-Sep-13 07:55N 34°38' E 135°25'0 0.0
2017-Sep-13 07:25N 34°38' E 135°25'0 0.0
2017-Sep-13 06:55N 34°38' E 135°25'0 0.0
2017-Sep-13 06:25N 34°38' E 135°25'0 0.0
2017-Sep-13 05:55N 34°38' E 135°25'0 0.0
2017-Sep-13 05:25N 34°38' E 135°25'0 0.0
2017-Sep-13 04:55N 34°38' E 135°25'0 0.0
2017-Sep-13 04:25N 34°38' E 135°25'0 0.0
2017-Sep-13 03:55N 34°38' E 135°25'0 0.0
2017-Sep-13 03:25N 34°38' E 135°25'0 0.0
2017-Sep-13 02:55N 34°38' E 135°25'0 0.0
2017-Sep-13 02:25N 34°38' E 135°25'0 0.0
2017-Sep-13 01:49N 34°38' E 135°25'0 0.0
2017-Sep-13 01:25N 34°38' E 135°25'0 0.0
2017-Sep-13 00:55N 34°38' E 135°25'0 0.0
2017-Sep-13 00:25N 34°38' E 135°25'0 0.0
2017-Sep-12 23:55N 34°38' E 135°25'0 0.0
2017-Sep-12 23:25N 34°38' E 135°25'0 0.0
2017-Sep-12 22:55N 34°38' E 135°25'0 0.0
2017-Sep-12 22:25N 34°38' E 135°25'0 0.0
2017-Sep-12 21:31N 34°38' E 135°25'0 0.0
2017-Sep-12 21:25N 34°38' E 135°25'3 6.9
2017-Sep-12 21:00N 34°37' E 135°21'917.1
2017-Sep-12 20:30N 34°35' E 135°11'1019.7
2017-Sep-12 20:00N 34°37' E 134°59'  

Dump ship's entire track history